首页
METAR-TAF:

METAR-TAF

机场 :

Whitecourt, 艾伯塔, 加拿大

纬度: 54-09N, 经度: 115-47W, 海拔: 783米

当前天气观测

该预报发布于1小时和5分钟前的18:00 UTC
风速2节,风向多变
温度 16°C
湿度 39%
气压 1011 hPa
能見度: 24.1公里
散云层高于6000英尺
多云层高于24000英尺

METAR: CYZU 021800Z VRB02KT 15SM SCT060 BKN240 16/02 A2986 RMK CU4CI1 SLP122 DENSITY ALT 3400FT

时间: 13:05 (19:05 UTC)

预报

该预报发布于27分钟前的18:38 UTC
预报有效从02日的 19点(UTC)到 02日的 23点(UTC)
风速3节,风向多变
能見度: 10公里
散云层高于6000英尺
多云层高于24000英尺
短暂存在
从 02日的 19点(UTC)到 02日的 23点(UTC)
多云层高于6000英尺
阴天层高于24000英尺
成为
从 02日的 19点(UTC)到 02日的 21点(UTC)
风速8节,风向西

TAF: CYZU 021838Z 0219/0223 VRB03KT P6SM SCT060 BKN240 TEMPO 0219/0223 BKN060 OVC240 BECMG 0219/0221 27008KT RMK NXT FCST WILL BE ISSUED AT 031415Z

超过4000个机场的气象观测和天气预报(METAR&TAF报告)。

可查询的气象台以黄色和红色小点在地图上表示。

将鼠标移到小点上方,可查看气象台名称。

然后点击查看天气观测和预报。

如需切换地图:点击带黑十字的绿色按钮放大地图;点击带横线的绿色按钮缩小地图;或者点击绿色箭头查看邻近地区的地图。


METAR-TAF: